createdAt,value
2023-01-01T00:01:32.466Z,102881.13
2023-01-01T00:04:11.897Z,102886.25
2023-01-01T00:06:38.960Z,102876.53
2023-01-01T00:09:24.457Z,102879.31
2023-01-01T00:11:53.931Z,102880.59
2023-01-01T00:14:21.022Z,102877.25
2023-01-01T00:16:59.024Z,102882.78
2023-01-01T00:19:26.097Z,102885.41
2023-01-01T00:21:52.993Z,102875.69
2023-01-01T00:24:22.675Z,102878.69
2023-01-01T00:26:49.564Z,102873.31
2023-01-01T00:29:21.742Z,102871.97
2023-01-01T00:31:49.208Z,102869.97
2023-01-01T00:34:16.055Z,102861.56
2023-01-01T00:36:45.306Z,102863.69
2023-01-01T00:39:18.663Z,102868.94
2023-01-01T00:41:45.530Z,102859.88
2023-01-01T00:44:18.232Z,102854.75
2023-01-01T00:46:45.110Z,102858.69
2023-01-01T00:49:11.976Z,102859.16
2023-01-01T00:51:45.373Z,102864.09
2023-01-01T00:54:17.893Z,102863.16
2023-01-01T00:56:54.981Z,102854.41
2023-01-01T00:59:28.502Z,102858.56
2023-01-01T01:01:59.090Z,102853.22
2023-01-01T01:04:25.981Z,102851.84
2023-01-01T01:06:54.093Z,102848.94
2023-01-01T01:09:20.815Z,102854.16
2023-01-01T01:11:48.063Z,102850.47
2023-01-01T01:14:15.275Z,102843.59
2023-01-01T01:16:50.764Z,102841.56
2023-01-01T01:19:19.624Z,102851.00
2023-01-01T01:21:50.553Z,102855.31
2023-01-01T01:24:17.344Z,102858.88
2023-01-01T01:26:52.425Z,102864.72
2023-01-01T01:29:30.895Z,102862.09
2023-01-01T01:32:01.091Z,102864.94
2023-01-01T01:34:32.412Z,102864.41
2023-01-01T01:37:02.290Z,102859.44
2023-01-01T01:39:29.195Z,102870.06
2023-01-01T01:41:56.021Z,102856.06
2023-01-01T01:44:56.491Z,102861.84
2023-01-01T01:47:30.937Z,102870.28
2023-01-01T01:50:11.740Z,102864.13
2023-01-01T01:53:11.199Z,102856.06
2023-01-01T01:55:44.103Z,102864.66
2023-01-01T01:58:17.566Z,102864.66
2023-01-01T02:00:55.315Z,102862.00
2023-01-01T02:03:27.422Z,102851.94
2023-01-01T02:05:54.968Z,102857.25
2023-01-01T02:08:24.288Z,102856.38
2023-01-01T02:10:51.327Z,102857.94
2023-01-01T02:13:21.207Z,102850.66
2023-01-01T02:16:22.217Z,102853.16
2023-01-01T02:19:04.302Z,102856.50
2023-01-01T02:21:38.289Z,102855.50
2023-01-01T02:24:34.965Z,102850.50
2023-01-01T02:27:13.537Z,102850.50
2023-01-01T02:29:43.831Z,102838.56
2023-01-01T02:32:16.245Z,102835.94
2023-01-01T02:35:34.459Z,102835.69
2023-01-01T02:38:18.116Z,102828.78
2023-01-01T02:40:51.966Z,102829.31
2023-01-01T02:43:24.624Z,102824.72
2023-01-01T02:46:07.090Z,102829.31
2023-01-01T02:48:49.188Z,102827.88
2023-01-01T02:51:55.555Z,102819.75
2023-01-01T02:55:01.876Z,102813.38
2023-01-01T02:57:41.701Z,102815.94
2023-01-01T03:00:19.784Z,102817.56
2023-01-01T03:03:19.221Z,102815.69
2023-01-01T03:06:22.908Z,102816.56
2023-01-01T03:08:55.831Z,102810.31
2023-01-01T03:11:25.053Z,102817.34
2023-01-01T03:14:17.741Z,102806.69
2023-01-01T03:17:05.908Z,102817.91
2023-01-01T03:19:40.899Z,102807.44
2023-01-01T03:22:19.410Z,102813.47
2023-01-01T03:24:53.144Z,102822.47
2023-01-01T03:27:26.159Z,102818.84
2023-01-01T03:29:57.243Z,102818.72
2023-01-01T03:33:02.100Z,102825.28
2023-01-01T03:35:52.698Z,102817.13
2023-01-01T03:38:42.074Z,102800.47
2023-01-01T03:41:41.737Z,102804.91
2023-01-01T03:44:28.979Z,102807.69
2023-01-01T03:47:00.454Z,102803.16
2023-01-01T03:49:31.366Z,102811.66
2023-01-01T03:52:35.781Z,102815.25
2023-01-01T03:55:09.156Z,102819.13
2023-01-01T03:57:52.372Z,102811.66
2023-01-01T04:00:24.680Z,102806.88
2023-01-01T04:03:00.735Z,102805.44
2023-01-01T04:05:30.439Z,102810.09
2023-01-01T04:08:04.182Z,102804.78
2023-01-01T04:10:37.745Z,102803.47
2023-01-01T04:13:08.967Z,102802.03
2023-01-01T04:15:42.260Z,102799.31
2023-01-01T04:18:09.683Z,102801.25
2023-01-01T04:20:39.928Z,102800.63
2023-01-01T04:23:06.916Z,102793.09
2023-01-01T04:25:34.018Z,102784.22
2023-01-01T04:28:03.698Z,102792.22
2023-01-01T04:30:31.236Z,102791.72
2023-01-01T04:33:01.205Z,102798.13
2023-01-01T04:35:30.522Z,102783.25
2023-01-01T04:38:00.924Z,102784.94
2023-01-01T04:40:27.921Z,102792.91
2023-01-01T04:42:57.913Z,102791.94
2023-01-01T04:45:25.425Z,102780.09
2023-01-01T04:47:52.415Z,102777.56
2023-01-01T04:50:19.508Z,102766.69
2023-01-01T04:52:51.602Z,102777.94
2023-01-01T04:55:20.868Z,102788.91
2023-01-01T04:57:47.893Z,102795.38
2023-01-01T05:00:15.186Z,102795.88
2023-01-01T05:02:42.118Z,102800.41
2023-01-01T05:05:09.320Z,102800.66
2023-01-01T05:07:39.354Z,102796.16
2023-01-01T05:10:06.944Z,102800.13
2023-01-01T05:12:33.937Z,102798.41
2023-01-01T05:15:01.196Z,102792.66
2023-01-01T05:17:30.438Z,102800.88
2023-01-01T05:20:00.580Z,102808.50
2023-01-01T05:22:27.582Z,102802.34
2023-01-01T05:24:55.051Z,102802.22
2023-01-01T05:27:23.552Z,102808.47
2023-01-01T05:29:50.495Z,102804.09
2023-01-01T05:34:57.801Z,102792.78
2023-01-01T05:37:24.912Z,102796.56
2023-01-01T05:39:52.062Z,102799.97
2023-01-01T05:42:20.818Z,102810.31
2023-01-01T05:44:47.749Z,102811.00
2023-01-01T05:47:17.841Z,102817.84
2023-01-01T05:49:44.832Z,102818.56
2023-01-01T05:52:14.567Z,102817.06
2023-01-01T05:54:41.653Z,102813.84
2023-01-01T05:57:11.377Z,102821.44
2023-01-01T05:59:38.393Z,102819.16
2023-01-01T06:02:05.397Z,102812.66
2023-01-01T06:04:32.558Z,102817.44
2023-01-01T06:07:02.674Z,102822.34
2023-01-01T06:09:32.443Z,102829.44
2023-01-01T06:11:59.283Z,102834.38
2023-01-01T06:14:27.471Z,102825.72
2023-01-01T06:16:54.395Z,102835.00
2023-01-01T06:19:21.299Z,102832.28
2023-01-01T06:21:48.800Z,102838.72
2023-01-01T06:24:15.712Z,102841.66
2023-01-01T06:26:44.212Z,102839.81
2023-01-01T06:29:11.051Z,102842.28
2023-01-01T06:31:40.858Z,102834.16
2023-01-01T06:34:08.166Z,102838.81
2023-01-01T06:36:35.105Z,102836.38
2023-01-01T06:39:05.737Z,102835.06
2023-01-01T06:41:32.649Z,102838.66
2023-01-01T06:44:02.286Z,102845.56
2023-01-01T06:46:36.887Z,102838.34
2023-01-01T06:49:11.621Z,102831.63
2023-01-01T06:51:46.058Z,102828.66
2023-01-01T06:54:13.076Z,102839.84
2023-01-01T06:56:40.236Z,102837.50
2023-01-01T06:59:10.090Z,102831.66
2023-01-01T07:01:44.101Z,102844.06
2023-01-01T07:04:17.240Z,102838.66
2023-01-01T07:06:46.978Z,102836.72
2023-01-01T07:09:16.704Z,102839.84
2023-01-01T07:11:46.776Z,102835.56
2023-01-01T07:14:13.726Z,102833.69
2023-01-01T07:16:43.851Z,102838.47
2023-01-01T07:19:13.940Z,102841.25
2023-01-01T07:21:54.153Z,102843.41
2023-01-01T07:24:27.014Z,102837.34
2023-01-01T07:26:53.923Z,102840.41
2023-01-01T07:29:23.723Z,102841.81
2023-01-01T07:31:50.803Z,102852.94
2023-01-01T07:34:24.128Z,102849.56
2023-01-01T07:36:51.170Z,102850.25
2023-01-01T07:39:18.511Z,102861.84
2023-01-01T07:41:46.085Z,102850.81
2023-01-01T07:44:13.008Z,102853.53
2023-01-01T07:46:40.100Z,102857.03
2023-01-01T07:49:07.117Z,102865.13
2023-01-01T07:51:34.016Z,102861.28
2023-01-01T07:54:06.183Z,102857.09
2023-01-01T07:56:34.795Z,102863.38
2023-01-01T07:59:01.688Z,102854.22
2023-01-01T08:01:31.706Z,102858.50
2023-01-01T08:03:58.754Z,102859.38
2023-01-01T08:06:25.622Z,102852.47
2023-01-01T08:08:52.484Z,102847.59
2023-01-01T08:11:22.569Z,102858.22
2023-01-01T08:13:52.529Z,102859.22
2023-01-01T08:16:19.519Z,102869.22
2023-01-01T08:18:53.766Z,102877.13
2023-01-01T08:21:29.503Z,102869.16
2023-01-01T08:24:00.341Z,102875.03
2023-01-01T08:26:35.315Z,102873.00
2023-01-01T08:29:04.951Z,102878.97
2023-01-01T08:31:32.152Z,102871.19
2023-01-01T08:33:59.555Z,102872.69
2023-01-01T08:36:26.621Z,102877.25
2023-01-01T08:38:54.025Z,102867.41
2023-01-01T08:41:21.398Z,102860.47
2023-01-01T08:43:49.470Z,102867.38
2023-01-01T08:46:16.800Z,102867.41
2023-01-01T08:48:46.773Z,102878.84
2023-01-01T08:51:16.307Z,102869.84
2023-01-01T08:53:51.467Z,102877.66
2023-01-01T08:56:19.162Z,102878.53
2023-01-01T08:58:49.445Z,102880.53
2023-01-01T09:01:29.640Z,102885.94
2023-01-01T09:03:59.584Z,102883.25
2023-01-01T09:06:26.553Z,102898.16
2023-01-01T09:08:53.554Z,102888.56
2023-01-01T09:11:27.177Z,102897.38
2023-01-01T09:13:54.659Z,102890.63
2023-01-01T09:16:23.789Z,102888.97
2023-01-01T09:18:55.484Z,102881.41
2023-01-01T09:21:22.480Z,102886.69
2023-01-01T09:23:52.590Z,102891.16
2023-01-01T09:26:19.557Z,102889.47
2023-01-01T09:28:49.199Z,102888.53
2023-01-01T09:31:18.438Z,102881.69
2023-01-01T09:33:49.409Z,102884.97
2023-01-01T09:36:43.158Z,102877.84
2023-01-01T09:39:16.394Z,102891.84
2023-01-01T09:42:07.878Z,102890.97
2023-01-01T09:44:53.552Z,102883.91
2023-01-01T09:47:30.333Z,102878.72
2023-01-01T09:50:21.063Z,102873.56
2023-01-01T09:53:04.464Z,102885.84
2023-01-01T09:55:43.989Z,102870.09
2023-01-01T09:58:14.285Z,102861.31
2023-01-01T10:00:45.388Z,102861.38
2023-01-01T10:03:32.879Z,102864.16
2023-01-01T10:06:11.854Z,102853.66
2023-01-01T10:08:38.666Z,102856.38
2023-01-01T10:11:16.035Z,102859.88
2023-01-01T10:13:48.462Z,102847.69
2023-01-01T10:16:42.965Z,102846.81
2023-01-01T10:19:37.654Z,102839.06
2023-01-01T10:22:09.741Z,102836.34
2023-01-01T10:24:44.894Z,102838.16
2023-01-01T10:27:57.140Z,102834.66
2023-01-01T10:30:27.831Z,102837.25
2023-01-01T10:32:58.693Z,102837.25
2023-01-01T10:35:32.696Z,102822.28
2023-01-01T10:38:00.469Z,102827.59
2023-01-01T10:40:35.622Z,102822.25
2023-01-01T10:43:06.586Z,102824.84
2023-01-01T10:45:36.921Z,102816.91
2023-01-01T10:48:11.947Z,102817.91
2023-01-01T10:50:48.629Z,102810.91
2023-01-01T10:53:46.563Z,102808.34
2023-01-01T10:56:22.883Z,102803.03
2023-01-01T10:58:56.772Z,102802.31
2023-01-01T11:01:29.028Z,102804.06
2023-01-01T11:03:59.006Z,102807.63
2023-01-01T11:06:36.386Z,102799.72
2023-01-01T11:09:07.259Z,102795.34
2023-01-01T11:11:43.258Z,102786.44
2023-01-01T11:14:29.918Z,102783.72
2023-01-01T11:16:57.763Z,102785.72
2023-01-01T11:19:29.739Z,102786.63
2023-01-01T11:22:07.348Z,102787.56
2023-01-01T11:24:35.786Z,102776.13
2023-01-01T11:27:14.268Z,102776.03
2023-01-01T11:29:44.397Z,102775.13
2023-01-01T11:32:22.827Z,102768.22
2023-01-01T11:34:58.681Z,102769.97
2023-01-01T11:37:39.104Z,102760.31
2023-01-01T11:40:15.451Z,102766.47
2023-01-01T11:42:48.301Z,102766.53
2023-01-01T11:45:25.542Z,102764.72
2023-01-01T11:48:00.891Z,102756.81
2023-01-01T11:50:32.925Z,102742.84
2023-01-01T11:53:37.557Z,102747.25
2023-01-01T11:56:12.960Z,102737.59
2023-01-01T11:58:52.378Z,102730.63
2023-01-01T12:01:39.803Z,102734.13
2023-01-01T12:04:09.074Z,102720.09
2023-01-01T12:06:54.551Z,102721.84
2023-01-01T12:10:09.973Z,102724.53
2023-01-01T12:12:50.842Z,102729.84
2023-01-01T12:15:31.774Z,102729.84
2023-01-01T12:18:13.518Z,102735.97
2023-01-01T12:20:52.005Z,102719.34
2023-01-01T12:23:19.922Z,102722.00
2023-01-01T12:25:56.540Z,102717.59
2023-01-01T12:28:32.834Z,102709.63
2023-01-01T12:31:51.967Z,102710.47
2023-01-01T12:34:44.294Z,102702.56
2023-01-01T12:37:55.470Z,102705.22
2023-01-01T12:41:06.499Z,102696.34
2023-01-01T12:43:53.028Z,102707.78
2023-01-01T12:46:27.679Z,102703.41
2023-01-01T12:49:33.124Z,102703.41
2023-01-01T12:52:14.978Z,102699.00
2023-01-01T12:55:11.042Z,102697.31
2023-01-01T12:57:44.014Z,102697.31
2023-01-01T13:00:20.305Z,102689.41
2023-01-01T13:03:02.241Z,102694.66
2023-01-01T13:05:44.833Z,102692.81
2023-01-01T13:08:11.743Z,102693.72
2023-01-01T13:10:44.537Z,102699.88
2023-01-01T13:13:16.644Z,102701.69
2023-01-01T13:15:57.011Z,102692.06
2023-01-01T13:18:36.657Z,102691.13
2023-01-01T13:21:27.226Z,102696.44
2023-01-01T13:23:58.525Z,102698.13
2023-01-01T13:26:34.793Z,102704.28
2023-01-01T13:29:13.313Z,102708.75
2023-01-01T13:31:43.052Z,102714.91
2023-01-01T13:34:31.856Z,102708.75
2023-01-01T13:37:31.944Z,102704.34
2023-01-01T13:40:05.758Z,102704.41
2023-01-01T13:42:57.626Z,102714.09
2023-01-01T13:48:41.393Z,102716.72
2023-01-01T13:54:51.759Z,102716.75
2023-01-01T14:00:25.139Z,102718.44
2023-01-01T14:03:03.245Z,102717.44
2023-01-01T14:05:46.486Z,102722.75
2023-01-01T14:08:36.193Z,102713.13
2023-01-01T14:11:18.992Z,102711.44
2023-01-01T14:13:48.283Z,102714.09
2023-01-01T14:16:16.402Z,102708.78
2023-01-01T14:18:55.952Z,102715.78
2023-01-01T14:21:30.121Z,102712.19
2023-01-01T14:24:02.478Z,102719.19
2023-01-01T14:26:34.114Z,102716.50
2023-01-01T14:29:11.529Z,102711.25
2023-01-01T14:31:45.819Z,102712.94
2023-01-01T14:34:27.376Z,102725.16
2023-01-01T14:36:56.849Z,102725.25
2023-01-01T14:39:35.399Z,102724.34
2023-01-01T14:42:11.824Z,102732.19
2023-01-01T14:44:45.117Z,102728.63
2023-01-01T14:47:26.757Z,102726.00
2023-01-01T14:49:57.933Z,102737.44
2023-01-01T14:52:30.253Z,102733.97
2023-01-01T14:55:00.584Z,102733.97
2023-01-01T14:57:31.249Z,102724.31
2023-01-01T14:59:58.545Z,102726.88
2023-01-01T15:02:30.988Z,102720.72
2023-01-01T15:05:15.139Z,102728.59
2023-01-01T15:07:42.164Z,102726.81
2023-01-01T15:10:12.943Z,102726.72
2023-01-01T15:12:41.550Z,102718.06
2023-01-01T15:15:44.428Z,102718.91
2023-01-01T15:18:54.835Z,102720.50
2023-01-01T15:21:42.962Z,102719.66
2023-01-01T15:24:10.313Z,102730.16
2023-01-01T15:26:44.408Z,102719.56
2023-01-01T15:29:24.040Z,102727.53
2023-01-01T15:31:56.641Z,102728.34
2023-01-01T15:34:28.981Z,102723.09
2023-01-01T15:37:07.036Z,102723.19
2023-01-01T15:39:34.166Z,102717.00
2023-01-01T15:42:01.182Z,102724.91
2023-01-01T15:44:31.518Z,102723.19
2023-01-01T15:47:17.779Z,102719.66
2023-01-01T15:49:47.979Z,102714.34
2023-01-01T15:52:29.835Z,102715.13
2023-01-01T15:55:01.903Z,102726.47
2023-01-01T15:57:28.937Z,102722.84
2023-01-01T15:59:56.235Z,102724.78
2023-01-01T16:02:43.161Z,102724.00
2023-01-01T16:05:18.729Z,102719.66
2023-01-01T16:07:46.044Z,102726.94
2023-01-01T16:10:17.509Z,102731.91
2023-01-01T16:12:44.348Z,102728.25
2023-01-01T16:15:19.844Z,102728.16
2023-01-01T16:17:49.945Z,102730.06
2023-01-01T16:20:23.729Z,102724.63
2023-01-01T16:22:56.466Z,102731.75
2023-01-01T16:25:24.103Z,102732.81
2023-01-01T16:27:51.097Z,102727.00
2023-01-01T16:30:17.971Z,102734.72
2023-01-01T16:32:49.307Z,102740.72
2023-01-01T16:35:18.553Z,102738.44
2023-01-01T16:37:45.457Z,102729.69
2023-01-01T16:40:12.711Z,102737.53
2023-01-01T16:42:39.902Z,102739.16
2023-01-01T16:45:09.866Z,102742.72
2023-01-01T16:47:40.048Z,102741.75
2023-01-01T16:50:11.490Z,102752.13
2023-01-01T16:52:44.587Z,102746.13
2023-01-01T16:55:12.308Z,102747.69
2023-01-01T16:57:40.310Z,102750.13
2023-01-01T17:02:58.665Z,102756.75
2023-01-01T17:05:26.095Z,102755.72
2023-01-01T17:07:54.193Z,102755.72
2023-01-01T17:10:21.302Z,102751.25
2023-01-01T17:12:48.418Z,102749.53
2023-01-01T17:15:18.180Z,102743.31
2023-01-01T17:17:49.350Z,102750.34
2023-01-01T17:20:19.200Z,102748.56
2023-01-01T17:22:46.256Z,102741.47
2023-01-01T17:25:13.539Z,102754.63
2023-01-01T17:27:40.629Z,102742.28
2023-01-01T17:30:08.455Z,102743.16
2023-01-01T17:32:35.485Z,102759.78
2023-01-01T17:35:02.591Z,102751.00
2023-01-01T17:37:33.173Z,102746.88
2023-01-01T17:40:00.674Z,102756.28
2023-01-01T17:42:27.674Z,102750.19
2023-01-01T17:44:59.628Z,102759.56
2023-01-01T17:47:30.918Z,102757.56
2023-01-01T17:49:59.751Z,102764.44
2023-01-01T17:52:29.879Z,102763.59
2023-01-01T17:54:56.773Z,102761.75
2023-01-01T17:57:24.073Z,102762.50
2023-01-01T17:59:53.513Z,102768.53
2023-01-01T18:02:27.113Z,102776.34
2023-01-01T18:04:54.741Z,102780.63
2023-01-01T18:07:21.800Z,102777.94
2023-01-01T18:09:51.232Z,102779.66
2023-01-01T18:12:18.306Z,102778.41
2023-01-01T18:14:48.246Z,102771.66
2023-01-01T18:17:15.331Z,102768.03
2023-01-01T18:19:42.334Z,102772.38
2023-01-01T18:22:09.467Z,102776.69
2023-01-01T18:24:36.874Z,102780.88
2023-01-01T18:27:03.847Z,102775.50
2023-01-01T18:29:30.869Z,102777.19
2023-01-01T18:31:58.027Z,102779.84
2023-01-01T18:34:25.190Z,102784.97
2023-01-01T18:36:55.599Z,102784.97
2023-01-01T18:39:24.600Z,102787.56
2023-01-01T18:42:34.676Z,102788.53
2023-01-01T18:45:16.662Z,102792.94
2023-01-01T18:47:51.087Z,102785.22
2023-01-01T18:50:26.045Z,102787.31
2023-01-01T18:53:26.289Z,102792.31
2023-01-01T18:56:09.476Z,102793.88
2023-01-01T18:58:36.424Z,102786.69
2023-01-01T19:01:15.038Z,102787.41
2023-01-01T19:03:42.357Z,102785.13
2023-01-01T19:06:27.291Z,102784.72
2023-01-01T19:09:09.035Z,102786.97
2023-01-01T19:11:38.804Z,102791.22
2023-01-01T19:14:23.227Z,102799.91
2023-01-01T19:16:52.909Z,102802.50
2023-01-01T19:19:39.147Z,102800.63
2023-01-01T19:22:31.283Z,102803.16
2023-01-01T19:24:58.567Z,102805.78
2023-01-01T19:27:34.463Z,102806.72
2023-01-01T19:30:02.361Z,102803.41
2023-01-01T19:32:29.398Z,102789.47
2023-01-01T19:34:56.765Z,102793.09
2023-01-01T19:37:23.941Z,102794.09
2023-01-01T19:39:57.299Z,102793.22
2023-01-01T19:42:28.180Z,102802.78
2023-01-01T19:44:55.275Z,102793.97
2023-01-01T19:47:22.219Z,102793.50
2023-01-01T19:49:55.673Z,102798.78
2023-01-01T19:52:23.002Z,102797.75
2023-01-01T19:54:53.874Z,102795.00
2023-01-01T19:57:21.829Z,102793.22
2023-01-01T19:59:49.878Z,102787.03
2023-01-01T20:02:45.974Z,102799.31
2023-01-01T20:05:08.690Z,102802.75
2023-01-01T20:07:37.693Z,102799.25
2023-01-01T20:10:06.827Z,102804.53
2023-01-01T20:12:33.758Z,102804.75
2023-01-01T20:15:00.629Z,102808.38
2023-01-01T20:17:27.633Z,102810.22
2023-01-01T20:19:55.060Z,102810.13
2023-01-01T20:22:22.322Z,102804.88
2023-01-01T20:24:49.608Z,102802.13
2023-01-01T20:27:23.589Z,102810.13
2023-01-01T20:29:51.666Z,102810.22
2023-01-01T20:32:18.992Z,102811.00
2023-01-01T20:34:46.289Z,102817.09
2023-01-01T20:37:32.245Z,102812.94
2023-01-01T20:39:59.223Z,102815.00
2023-01-01T20:42:27.844Z,102815.00
2023-01-01T20:44:54.847Z,102819.34
2023-01-01T20:47:21.997Z,102821.91
2023-01-01T20:49:48.964Z,102821.06
2023-01-01T20:52:19.324Z,102820.03
2023-01-01T20:54:46.763Z,102823.75
2023-01-01T20:57:14.228Z,102821.84
2023-01-01T20:59:43.403Z,102815.78
2023-01-01T21:02:12.390Z,102816.50
2023-01-01T21:04:41.909Z,102819.06
2023-01-01T21:07:12.238Z,102826.97
2023-01-01T21:09:40.600Z,102820.66
2023-01-01T21:12:08.841Z,102815.34
2023-01-01T21:14:36.022Z,102814.66
2023-01-01T21:17:21.592Z,102816.47
2023-01-01T21:19:51.785Z,102815.75
2023-01-01T21:22:19.730Z,102812.28
2023-01-01T21:24:53.398Z,102809.94
2023-01-01T21:27:29.523Z,102807.25
2023-01-01T21:29:58.544Z,102809.91
2023-01-01T21:32:48.141Z,102811.59
2023-01-01T21:35:20.299Z,102813.13
2023-01-01T21:37:54.574Z,102807.03
2023-01-01T21:40:43.621Z,102808.78
2023-01-01T21:43:33.108Z,102810.50
2023-01-01T21:46:18.444Z,102806.94
2023-01-01T21:48:59.561Z,102816.50
2023-01-01T21:51:34.091Z,102810.63
2023-01-01T21:54:18.939Z,102817.63
2023-01-01T21:56:56.866Z,102814.22
2023-01-01T21:59:35.504Z,102813.13
2023-01-01T22:02:08.445Z,102813.28
2023-01-01T22:04:41.079Z,102813.63
2023-01-01T22:10:26.965Z,102818.75
2023-01-01T22:12:59.199Z,102824.78
2023-01-01T22:15:25.965Z,102825.59
2023-01-01T22:18:22.096Z,102824.63
2023-01-01T22:20:52.260Z,102822.78
2023-01-01T22:23:39.710Z,102828.94
2023-01-01T22:26:30.106Z,102824.69
2023-01-01T22:29:15.217Z,102823.69
2023-01-01T22:31:48.767Z,102814.81
2023-01-01T22:34:21.849Z,102820.47
2023-01-01T22:36:50.336Z,102821.28
2023-01-01T22:39:28.190Z,102814.28
2023-01-01T22:41:59.396Z,102813.72
2023-01-01T22:44:29.300Z,102810.84
2023-01-01T22:46:59.122Z,102809.13
2023-01-01T22:49:49.879Z,102816.84
2023-01-01T22:52:16.892Z,102816.06
2023-01-01T22:54:44.288Z,102810.81
2023-01-01T22:57:11.210Z,102817.06
2023-01-01T22:59:38.148Z,102817.06
2023-01-01T23:02:13.382Z,102812.88
2023-01-01T23:04:40.420Z,102813.53
2023-01-01T23:07:14.330Z,102818.69
2023-01-01T23:09:45.987Z,102811.75
2023-01-01T23:12:13.153Z,102815.13
2023-01-01T23:14:58.646Z,102819.56
2023-01-01T23:17:25.770Z,102812.59
2023-01-01T23:19:53.808Z,102803.88
2023-01-01T23:22:21.084Z,102802.03
2023-01-01T23:24:49.714Z,102799.28
2023-01-01T23:27:16.807Z,102800.91
2023-01-01T23:29:47.303Z,102793.03
2023-01-01T23:32:15.329Z,102790.44
2023-01-01T23:34:44.234Z,102793.88
2023-01-01T23:37:13.627Z,102789.72
2023-01-01T23:39:41.622Z,102786.97
2023-01-01T23:42:11.539Z,102782.88
2023-01-01T23:44:38.748Z,102785.44
2023-01-01T23:47:06.823Z,102779.44
2023-01-01T23:49:34.381Z,102772.78
2023-01-01T23:52:02.704Z,102777.94
2023-01-01T23:54:30.040Z,102776.97
2023-01-01T23:56:58.824Z,102776.94
2023-01-01T23:59:26.772Z,102780.53
